sensor_id;sensor_type;location;lat;lon;timestamp;P1;durP1;ratioP1;P2;durP2;ratioP2
36653;SDS011;22650;49.350;20.898;2024-02-28T00:01:06;83.38;;;39.05;;
36653;SDS011;22650;49.350;20.898;2024-02-28T00:03:40;88.53;;;41.17;;
36653;SDS011;22650;49.350;20.898;2024-02-28T00:06:15;80.20;;;37.55;;
36653;SDS011;22650;49.350;20.898;2024-02-28T00:08:49;90.15;;;41.80;;
36653;SDS011;22650;49.350;20.898;2024-02-28T00:11:24;80.68;;;38.15;;
36653;SDS011;22650;49.350;20.898;2024-02-28T00:13:59;87.68;;;41.70;;
36653;SDS011;22650;49.350;20.898;2024-02-28T00:16:33;90.13;;;41.33;;
36653;SDS011;22650;49.350;20.898;2024-02-28T00:19:07;75.70;;;36.30;;
36653;SDS011;22650;49.350;20.898;2024-02-28T00:21:41;70.72;;;33.05;;
36653;SDS011;22650;49.350;20.898;2024-02-28T00:24:14;73.07;;;32.50;;
36653;SDS011;22650;49.350;20.898;2024-02-28T00:26:48;86.47;;;42.20;;
36653;SDS011;22650;49.350;20.898;2024-02-28T00:29:23;79.10;;;36.65;;
36653;SDS011;22650;49.350;20.898;2024-02-28T00:31:56;76.05;;;37.70;;
36653;SDS011;22650;49.350;20.898;2024-02-28T00:34:30;65.57;;;36.03;;
36653;SDS011;22650;49.350;20.898;2024-02-28T00:37:04;71.70;;;35.40;;
36653;SDS011;22650;49.350;20.898;2024-02-28T00:39:37;68.45;;;35.03;;
36653;SDS011;22650;49.350;20.898;2024-02-28T00:42:11;64.25;;;35.50;;
36653;SDS011;22650;49.350;20.898;2024-02-28T00:44:46;58.67;;;33.20;;
36653;SDS011;22650;49.350;20.898;2024-02-28T00:47:19;47.40;;;26.95;;
36653;SDS011;22650;49.350;20.898;2024-02-28T00:49:53;72.93;;;35.38;;
36653;SDS011;22650;49.350;20.898;2024-02-28T00:59:38;57.28;;;32.13;;
36653;SDS011;22650;49.350;20.898;2024-02-28T01:02:13;49.95;;;25.67;;
36653;SDS011;22650;49.350;20.898;2024-02-28T01:04:46;42.60;;;22.88;;
36653;SDS011;22650;49.350;20.898;2024-02-28T01:07:20;43.67;;;25.20;;
36653;SDS011;22650;49.350;20.898;2024-02-28T01:09:53;42.97;;;23.77;;
36653;SDS011;22650;49.350;20.898;2024-02-28T01:12:27;39.47;;;22.92;;
36653;SDS011;22650;49.350;20.898;2024-02-28T01:15:01;41.83;;;23.40;;
36653;SDS011;22650;49.350;20.898;2024-02-28T01:17:36;33.80;;;20.48;;
36653;SDS011;22650;49.350;20.898;2024-02-28T01:20:10;38.83;;;21.30;;
36653;SDS011;22650;49.350;20.898;2024-02-28T01:22:44;39.55;;;21.83;;
36653;SDS011;22650;49.350;20.898;2024-02-28T01:25:18;30.60;;;18.33;;
36653;SDS011;22650;49.350;20.898;2024-02-28T01:27:51;25.58;;;16.27;;
36653;SDS011;22650;49.350;20.898;2024-02-28T01:30:25;29.92;;;17.38;;
36653;SDS011;22650;49.350;20.898;2024-02-28T01:33:00;30.63;;;16.88;;
36653;SDS011;22650;49.350;20.898;2024-02-28T01:35:34;34.13;;;17.38;;
36653;SDS011;22650;49.350;20.898;2024-02-28T01:38:07;31.70;;;16.88;;
36653;SDS011;22650;49.350;20.898;2024-02-28T01:40:43;25.40;;;15.05;;
36653;SDS011;22650;49.350;20.898;2024-02-28T01:43:18;30.63;;;16.27;;
36653;SDS011;22650;49.350;20.898;2024-02-28T01:45:51;25.77;;;15.95;;
36653;SDS011;22650;49.350;20.898;2024-02-28T01:48:26;28.65;;;16.52;;
36653;SDS011;22650;49.350;20.898;2024-02-28T01:51:00;29.13;;;16.50;;
36653;SDS011;22650;49.350;20.898;2024-02-28T01:53:34;28.30;;;16.38;;
36653;SDS011;22650;49.350;20.898;2024-02-28T01:56:08;30.35;;;17.63;;
36653;SDS011;22650;49.350;20.898;2024-02-28T01:58:42;27.52;;;17.00;;
36653;SDS011;22650;49.350;20.898;2024-02-28T02:01:18;27.70;;;15.93;;
36653;SDS011;22650;49.350;20.898;2024-02-28T02:03:57;27.55;;;15.95;;
36653;SDS011;22650;49.350;20.898;2024-02-28T02:06:30;24.20;;;13.85;;
36653;SDS011;22650;49.350;20.898;2024-02-28T02:09:05;23.40;;;13.43;;
36653;SDS011;22650;49.350;20.898;2024-02-28T02:11:38;31.27;;;18.55;;
36653;SDS011;22650;49.350;20.898;2024-02-28T02:14:13;35.65;;;17.73;;
36653;SDS011;22650;49.350;20.898;2024-02-28T02:16:46;31.35;;;17.70;;
36653;SDS011;22650;49.350;20.898;2024-02-28T02:19:21;26.15;;;14.90;;
36653;SDS011;22650;49.350;20.898;2024-02-28T02:21:57;31.35;;;17.15;;
36653;SDS011;22650;49.350;20.898;2024-02-28T02:24:33;23.95;;;14.32;;
36653;SDS011;22650;49.350;20.898;2024-02-28T02:27:06;21.42;;;13.65;;
36653;SDS011;22650;49.350;20.898;2024-02-28T02:29:40;24.42;;;14.27;;
36653;SDS011;22650;49.350;20.898;2024-02-28T02:32:13;24.08;;;13.75;;
36653;SDS011;22650;49.350;20.898;2024-02-28T02:34:47;24.05;;;14.68;;
36653;SDS011;22650;49.350;20.898;2024-02-28T02:37:20;24.20;;;13.98;;
36653;SDS011;22650;49.350;20.898;2024-02-28T02:39:55;24.50;;;13.35;;
36653;SDS011;22650;49.350;20.898;2024-02-28T02:42:29;21.58;;;13.02;;
36653;SDS011;22650;49.350;20.898;2024-02-28T02:45:03;22.10;;;12.82;;
36653;SDS011;22650;49.350;20.898;2024-02-28T02:47:37;23.40;;;12.77;;
36653;SDS011;22650;49.350;20.898;2024-02-28T02:50:11;22.63;;;12.38;;
36653;SDS011;22650;49.350;20.898;2024-02-28T02:52:45;18.02;;;11.25;;
36653;SDS011;22650;49.350;20.898;2024-02-28T02:55:20;21.33;;;12.43;;
36653;SDS011;22650;49.350;20.898;2024-02-28T02:57:53;18.67;;;11.55;;
36653;SDS011;22650;49.350;20.898;2024-02-28T03:00:27;15.63;;;11.13;;
36653;SDS011;22650;49.350;20.898;2024-02-28T03:03:01;17.40;;;10.70;;
36653;SDS011;22650;49.350;20.898;2024-02-28T03:05:34;19.30;;;11.90;;
36653;SDS011;22650;49.350;20.898;2024-02-28T03:08:08;23.33;;;13.10;;
36653;SDS011;22650;49.350;20.898;2024-02-28T03:10:43;20.40;;;11.13;;
36653;SDS011;22650;49.350;20.898;2024-02-28T03:13:16;22.45;;;13.52;;
36653;SDS011;22650;49.350;20.898;2024-02-28T03:15:50;20.75;;;11.43;;
36653;SDS011;22650;49.350;20.898;2024-02-28T03:18:24;20.33;;;11.68;;
36653;SDS011;22650;49.350;20.898;2024-02-28T03:20:58;16.60;;;10.80;;
36653;SDS011;22650;49.350;20.898;2024-02-28T03:23:31;20.48;;;12.13;;
36653;SDS011;22650;49.350;20.898;2024-02-28T03:26:09;22.42;;;12.30;;
36653;SDS011;22650;49.350;20.898;2024-02-28T03:28:42;25.20;;;13.40;;
36653;SDS011;22650;49.350;20.898;2024-02-28T03:31:16;24.08;;;14.00;;
36653;SDS011;22650;49.350;20.898;2024-02-28T03:33:49;25.13;;;13.80;;
36653;SDS011;22650;49.350;20.898;2024-02-28T03:36:23;18.45;;;11.80;;
36653;SDS011;22650;49.350;20.898;2024-02-28T03:38:57;17.95;;;10.77;;
36653;SDS011;22650;49.350;20.898;2024-02-28T03:41:31;18.80;;;12.32;;
36653;SDS011;22650;49.350;20.898;2024-02-28T03:44:05;24.38;;;14.05;;
36653;SDS011;22650;49.350;20.898;2024-02-28T03:46:39;23.95;;;13.95;;
36653;SDS011;22650;49.350;20.898;2024-02-28T03:49:13;22.55;;;13.20;;
36653;SDS011;22650;49.350;20.898;2024-02-28T03:51:46;19.70;;;11.50;;
36653;SDS011;22650;49.350;20.898;2024-02-28T03:54:20;18.95;;;12.23;;
36653;SDS011;22650;49.350;20.898;2024-02-28T03:56:55;20.70;;;12.60;;
36653;SDS011;22650;49.350;20.898;2024-02-28T03:59:28;21.80;;;11.30;;
36653;SDS011;22650;49.350;20.898;2024-02-28T04:02:02;19.33;;;12.07;;
36653;SDS011;22650;49.350;20.898;2024-02-28T04:04:35;23.55;;;12.75;;
36653;SDS011;22650;49.350;20.898;2024-02-28T04:07:09;27.55;;;13.57;;
36653;SDS011;22650;49.350;20.898;2024-02-28T04:09:43;27.30;;;15.80;;
36653;SDS011;22650;49.350;20.898;2024-02-28T04:12:18;23.90;;;13.70;;
36653;SDS011;22650;49.350;20.898;2024-02-28T04:14:51;23.88;;;14.10;;
36653;SDS011;22650;49.350;20.898;2024-02-28T04:17:25;24.08;;;13.98;;
36653;SDS011;22650;49.350;20.898;2024-02-28T04:19:59;23.25;;;13.43;;
36653;SDS011;22650;49.350;20.898;2024-02-28T04:22:36;29.67;;;16.15;;
36653;SDS011;22650;49.350;20.898;2024-02-28T04:25:09;27.30;;;15.27;;
36653;SDS011;22650;49.350;20.898;2024-02-28T04:27:44;29.05;;;16.38;;
36653;SDS011;22650;49.350;20.898;2024-02-28T04:30:19;21.70;;;13.20;;
36653;SDS011;22650;49.350;20.898;2024-02-28T04:32:52;27.52;;;14.85;;
36653;SDS011;22650;49.350;20.898;2024-02-28T04:35:26;21.88;;;13.27;;
36653;SDS011;22650;49.350;20.898;2024-02-28T04:37:59;28.25;;;15.55;;
36653;SDS011;22650;49.350;20.898;2024-02-28T04:40:33;28.55;;;15.32;;
36653;SDS011;22650;49.350;20.898;2024-02-28T04:43:08;22.88;;;13.27;;
36653;SDS011;22650;49.350;20.898;2024-02-28T04:45:42;22.95;;;12.82;;
36653;SDS011;22650;49.350;20.898;2024-02-28T04:48:15;23.42;;;13.48;;
36653;SDS011;22650;49.350;20.898;2024-02-28T04:50:49;26.38;;;13.73;;
36653;SDS011;22650;49.350;20.898;2024-02-28T04:53:23;23.65;;;13.15;;
36653;SDS011;22650;49.350;20.898;2024-02-28T04:55:58;21.10;;;12.90;;
36653;SDS011;22650;49.350;20.898;2024-02-28T04:58:33;23.58;;;13.30;;
36653;SDS011;22650;49.350;20.898;2024-02-28T05:01:08;22.25;;;13.13;;
36653;SDS011;22650;49.350;20.898;2024-02-28T05:03:41;25.75;;;13.45;;
36653;SDS011;22650;49.350;20.898;2024-02-28T05:06:15;20.52;;;13.05;;
36653;SDS011;22650;49.350;20.898;2024-02-28T05:08:49;20.95;;;11.80;;
36653;SDS011;22650;49.350;20.898;2024-02-28T05:11:22;26.55;;;14.68;;
36653;SDS011;22650;49.350;20.898;2024-02-28T05:13:57;24.08;;;14.00;;
36653;SDS011;22650;49.350;20.898;2024-02-28T05:16:31;20.15;;;12.70;;
36653;SDS011;22650;49.350;20.898;2024-02-28T05:19:04;23.45;;;12.98;;
36653;SDS011;22650;49.350;20.898;2024-02-28T05:21:41;21.73;;;11.45;;
36653;SDS011;22650;49.350;20.898;2024-02-28T05:24:15;21.52;;;11.75;;
36653;SDS011;22650;49.350;20.898;2024-02-28T05:26:49;21.30;;;12.68;;
36653;SDS011;22650;49.350;20.898;2024-02-28T05:29:24;24.20;;;13.77;;
36653;SDS011;22650;49.350;20.898;2024-02-28T05:31:58;24.25;;;13.88;;
36653;SDS011;22650;49.350;20.898;2024-02-28T05:34:32;22.27;;;13.15;;
36653;SDS011;22650;49.350;20.898;2024-02-28T05:37:06;29.88;;;16.77;;
36653;SDS011;22650;49.350;20.898;2024-02-28T05:39:39;24.08;;;14.38;;
36653;SDS011;22650;49.350;20.898;2024-02-28T05:42:13;26.90;;;14.00;;
36653;SDS011;22650;49.350;20.898;2024-02-28T05:44:53;23.52;;;14.07;;
36653;SDS011;22650;49.350;20.898;2024-02-28T05:47:26;25.98;;;15.10;;
36653;SDS011;22650;49.350;20.898;2024-02-28T05:50:01;25.80;;;16.13;;
36653;SDS011;22650;49.350;20.898;2024-02-28T05:52:37;25.10;;;15.50;;
36653;SDS011;22650;49.350;20.898;2024-02-28T05:55:10;27.50;;;16.13;;
36653;SDS011;22650;49.350;20.898;2024-02-28T05:57:44;26.50;;;14.68;;
36653;SDS011;22650;49.350;20.898;2024-02-28T06:00:19;28.05;;;14.23;;
36653;SDS011;22650;49.350;20.898;2024-02-28T06:05:26;26.98;;;15.32;;
36653;SDS011;22650;49.350;20.898;2024-02-28T06:08:00;29.95;;;15.63;;
36653;SDS011;22650;49.350;20.898;2024-02-28T06:10:33;25.42;;;16.17;;
36653;SDS011;22650;49.350;20.898;2024-02-28T06:13:07;24.70;;;15.23;;
36653;SDS011;22650;49.350;20.898;2024-02-28T06:15:42;22.90;;;14.50;;
36653;SDS011;22650;49.350;20.898;2024-02-28T06:18:15;26.30;;;15.73;;
36653;SDS011;22650;49.350;20.898;2024-02-28T06:20:49;25.33;;;14.88;;
36653;SDS011;22650;49.350;20.898;2024-02-28T06:23:23;27.05;;;15.88;;
36653;SDS011;22650;49.350;20.898;2024-02-28T06:26:00;27.50;;;17.13;;
36653;SDS011;22650;49.350;20.898;2024-02-28T06:28:34;22.63;;;14.45;;
36653;SDS011;22650;49.350;20.898;2024-02-28T06:31:13;25.75;;;13.82;;
36653;SDS011;22650;49.350;20.898;2024-02-28T06:33:48;23.08;;;13.27;;
36653;SDS011;22650;49.350;20.898;2024-02-28T06:36:21;28.27;;;14.55;;
36653;SDS011;22650;49.350;20.898;2024-02-28T06:38:55;22.48;;;14.20;;
36653;SDS011;22650;49.350;20.898;2024-02-28T06:41:28;23.85;;;14.57;;
36653;SDS011;22650;49.350;20.898;2024-02-28T06:44:02;24.90;;;15.15;;
36653;SDS011;22650;49.350;20.898;2024-02-28T06:46:37;23.95;;;14.65;;
36653;SDS011;22650;49.350;20.898;2024-02-28T06:49:11;25.45;;;15.45;;
36653;SDS011;22650;49.350;20.898;2024-02-28T06:51:45;30.23;;;16.92;;
36653;SDS011;22650;49.350;20.898;2024-02-28T06:54:20;28.38;;;17.35;;
36653;SDS011;22650;49.350;20.898;2024-02-28T06:56:53;27.88;;;16.02;;
36653;SDS011;22650;49.350;20.898;2024-02-28T06:59:27;28.77;;;16.60;;
36653;SDS011;22650;49.350;20.898;2024-02-28T07:02:02;22.67;;;14.43;;
36653;SDS011;22650;49.350;20.898;2024-02-28T07:04:37;23.50;;;14.27;;
36653;SDS011;22650;49.350;20.898;2024-02-28T07:07:12;22.35;;;13.20;;
36653;SDS011;22650;49.350;20.898;2024-02-28T07:09:46;25.88;;;14.25;;
36653;SDS011;22650;49.350;20.898;2024-02-28T07:12:19;22.13;;;14.23;;
36653;SDS011;22650;49.350;20.898;2024-02-28T07:14:53;20.75;;;12.82;;
36653;SDS011;22650;49.350;20.898;2024-02-28T07:17:29;27.98;;;14.85;;
36653;SDS011;22650;49.350;20.898;2024-02-28T07:20:03;23.27;;;14.18;;
36653;SDS011;22650;49.350;20.898;2024-02-28T07:22:38;24.35;;;14.43;;
36653;SDS011;22650;49.350;20.898;2024-02-28T07:25:14;20.92;;;14.07;;
36653;SDS011;22650;49.350;20.898;2024-02-28T07:27:50;21.00;;;14.57;;
36653;SDS011;22650;49.350;20.898;2024-02-28T07:30:24;28.02;;;17.60;;
36653;SDS011;22650;49.350;20.898;2024-02-28T07:32:59;24.67;;;15.93;;
36653;SDS011;22650;49.350;20.898;2024-02-28T07:35:33;29.65;;;18.25;;
36653;SDS011;22650;49.350;20.898;2024-02-28T07:38:17;30.05;;;17.65;;
36653;SDS011;22650;49.350;20.898;2024-02-28T07:40:52;27.75;;;16.60;;
36653;SDS011;22650;49.350;20.898;2024-02-28T07:43:25;26.63;;;15.52;;
36653;SDS011;22650;49.350;20.898;2024-02-28T07:45:59;29.70;;;17.40;;
36653;SDS011;22650;49.350;20.898;2024-02-28T07:48:34;23.45;;;15.73;;
36653;SDS011;22650;49.350;20.898;2024-02-28T07:51:08;24.48;;;15.20;;
36653;SDS011;22650;49.350;20.898;2024-02-28T07:53:41;21.25;;;12.60;;
36653;SDS011;22650;49.350;20.898;2024-02-28T07:56:15;25.52;;;14.63;;
36653;SDS011;22650;49.350;20.898;2024-02-28T07:58:50;31.33;;;18.65;;
36653;SDS011;22650;49.350;20.898;2024-02-28T08:01:23;27.38;;;15.93;;
36653;SDS011;22650;49.350;20.898;2024-02-28T08:03:58;27.42;;;16.73;;
36653;SDS011;22650;49.350;20.898;2024-02-28T08:06:34;28.40;;;18.38;;
36653;SDS011;22650;49.350;20.898;2024-02-28T08:09:07;30.98;;;18.05;;
36653;SDS011;22650;49.350;20.898;2024-02-28T08:11:44;41.28;;;20.90;;
36653;SDS011;22650;49.350;20.898;2024-02-28T08:14:18;30.70;;;18.00;;
36653;SDS011;22650;49.350;20.898;2024-02-28T08:16:51;23.83;;;14.38;;
36653;SDS011;22650;49.350;20.898;2024-02-28T08:19:26;22.35;;;13.43;;
36653;SDS011;22650;49.350;20.898;2024-02-28T08:22:00;20.65;;;12.40;;
36653;SDS011;22650;49.350;20.898;2024-02-28T08:24:33;19.23;;;12.43;;
36653;SDS011;22650;49.350;20.898;2024-02-28T08:27:07;19.27;;;11.65;;
36653;SDS011;22650;49.350;20.898;2024-02-28T08:29:40;19.13;;;12.02;;
36653;SDS011;22650;49.350;20.898;2024-02-28T08:32:16;19.45;;;13.05;;
36653;SDS011;22650;49.350;20.898;2024-02-28T08:34:51;16.90;;;10.40;;
36653;SDS011;22650;49.350;20.898;2024-02-28T08:37:26;18.50;;;11.25;;
36653;SDS011;22650;49.350;20.898;2024-02-28T08:40:00;16.67;;;10.45;;
36653;SDS011;22650;49.350;20.898;2024-02-28T08:42:34;16.20;;;10.27;;
36653;SDS011;22650;49.350;20.898;2024-02-28T08:45:08;15.52;;;9.68;;
36653;SDS011;22650;49.350;20.898;2024-02-28T08:47:42;14.95;;;9.15;;
36653;SDS011;22650;49.350;20.898;2024-02-28T08:50:18;15.38;;;10.10;;
36653;SDS011;22650;49.350;20.898;2024-02-28T08:55:25;22.17;;;12.95;;
36653;SDS011;22650;49.350;20.898;2024-02-28T08:58:00;19.70;;;11.52;;
36653;SDS011;22650;49.350;20.898;2024-02-28T09:00:34;19.95;;;11.52;;
36653;SDS011;22650;49.350;20.898;2024-02-28T09:03:07;19.95;;;11.85;;
36653;SDS011;22650;49.350;20.898;2024-02-28T09:05:42;18.52;;;10.55;;
36653;SDS011;22650;49.350;20.898;2024-02-28T09:08:16;20.52;;;11.15;;
36653;SDS011;22650;49.350;20.898;2024-02-28T09:10:49;21.50;;;12.38;;
36653;SDS011;22650;49.350;20.898;2024-02-28T09:13:23;18.02;;;11.35;;
36653;SDS011;22650;49.350;20.898;2024-02-28T09:15:57;16.60;;;11.00;;
36653;SDS011;22650;49.350;20.898;2024-02-28T09:18:31;19.30;;;13.10;;
36653;SDS011;22650;49.350;20.898;2024-02-28T09:21:07;18.10;;;11.20;;
36653;SDS011;22650;49.350;20.898;2024-02-28T09:23:40;20.50;;;12.13;;
36653;SDS011;22650;49.350;20.898;2024-02-28T09:26:14;19.08;;;11.90;;
36653;SDS011;22650;49.350;20.898;2024-02-28T09:29:07;17.98;;;10.45;;
36653;SDS011;22650;49.350;20.898;2024-02-28T09:31:58;17.60;;;9.98;;
36653;SDS011;22650;49.350;20.898;2024-02-28T09:34:32;18.10;;;10.07;;
36653;SDS011;22650;49.350;20.898;2024-02-28T09:37:07;18.27;;;11.57;;
36653;SDS011;22650;49.350;20.898;2024-02-28T09:42:14;20.00;;;12.77;;
36653;SDS011;22650;49.350;20.898;2024-02-28T09:44:48;20.73;;;12.95;;
36653;SDS011;22650;49.350;20.898;2024-02-28T09:47:21;18.77;;;12.45;;
36653;SDS011;22650;49.350;20.898;2024-02-28T09:49:55;16.45;;;10.90;;
36653;SDS011;22650;49.350;20.898;2024-02-28T09:52:32;17.75;;;11.75;;
36653;SDS011;22650;49.350;20.898;2024-02-28T09:55:07;20.88;;;12.32;;
36653;SDS011;22650;49.350;20.898;2024-02-28T09:57:41;19.08;;;11.85;;
36653;SDS011;22650;49.350;20.898;2024-02-28T10:00:16;22.40;;;14.23;;
36653;SDS011;22650;49.350;20.898;2024-02-28T10:02:52;22.38;;;14.55;;
36653;SDS011;22650;49.350;20.898;2024-02-28T10:05:29;22.17;;;15.10;;
36653;SDS011;22650;49.350;20.898;2024-02-28T10:08:04;19.30;;;13.57;;
36653;SDS011;22650;49.350;20.898;2024-02-28T10:10:44;20.13;;;13.45;;
36653;SDS011;22650;49.350;20.898;2024-02-28T10:13:19;22.55;;;14.13;;
36653;SDS011;22650;49.350;20.898;2024-02-28T10:15:52;21.17;;;13.05;;
36653;SDS011;22650;49.350;20.898;2024-02-28T10:18:26;20.33;;;12.10;;
36653;SDS011;22650;49.350;20.898;2024-02-28T10:21:00;20.13;;;13.38;;
36653;SDS011;22650;49.350;20.898;2024-02-28T10:23:36;17.27;;;12.48;;
36653;SDS011;22650;49.350;20.898;2024-02-28T10:28:43;20.60;;;12.20;;
36653;SDS011;22650;49.350;20.898;2024-02-28T10:31:17;16.90;;;11.82;;
36653;SDS011;22650;49.350;20.898;2024-02-28T10:33:53;19.13;;;12.15;;
36653;SDS011;22650;49.350;20.898;2024-02-28T10:36:27;18.50;;;11.80;;
36653;SDS011;22650;49.350;20.898;2024-02-28T10:39:06;16.10;;;11.48;;
36653;SDS011;22650;49.350;20.898;2024-02-28T10:41:41;15.48;;;10.07;;
36653;SDS011;22650;49.350;20.898;2024-02-28T10:44:16;14.77;;;10.45;;
36653;SDS011;22650;49.350;20.898;2024-02-28T10:46:50;13.70;;;7.80;;
36653;SDS011;22650;49.350;20.898;2024-02-28T10:49:23;10.98;;;7.38;;
36653;SDS011;22650;49.350;20.898;2024-02-28T10:51:57;8.60;;;6.18;;
36653;SDS011;22650;49.350;20.898;2024-02-28T10:54:34;10.00;;;6.13;;
36653;SDS011;22650;49.350;20.898;2024-02-28T10:57:12;8.57;;;5.28;;
36653;SDS011;22650;49.350;20.898;2024-02-28T11:02:20;9.85;;;6.15;;
36653;SDS011;22650;49.350;20.898;2024-02-28T11:04:55;9.63;;;5.68;;
36653;SDS011;22650;49.350;20.898;2024-02-28T11:07:30;9.02;;;6.38;;
36653;SDS011;22650;49.350;20.898;2024-02-28T11:10:06;10.00;;;6.72;;
36653;SDS011;22650;49.350;20.898;2024-02-28T11:12:42;10.30;;;5.93;;
36653;SDS011;22650;49.350;20.898;2024-02-28T11:15:16;9.77;;;6.22;;
36653;SDS011;22650;49.350;20.898;2024-02-28T11:17:50;10.30;;;6.65;;
36653;SDS011;22650;49.350;20.898;2024-02-28T11:20:31;13.57;;;6.68;;
36653;SDS011;22650;49.350;20.898;2024-02-28T11:23:05;8.48;;;5.88;;
36653;SDS011;22650;49.350;20.898;2024-02-28T11:25:41;8.77;;;6.10;;
36653;SDS011;22650;49.350;20.898;2024-02-28T11:28:15;9.48;;;7.47;;
36653;SDS011;22650;49.350;20.898;2024-02-28T11:30:49;13.77;;;7.68;;
36653;SDS011;22650;49.350;20.898;2024-02-28T11:33:23;11.40;;;6.90;;
36653;SDS011;22650;49.350;20.898;2024-02-28T11:35:56;8.73;;;6.85;;
36653;SDS011;22650;49.350;20.898;2024-02-28T11:38:30;9.68;;;6.40;;
36653;SDS011;22650;49.350;20.898;2024-02-28T11:41:05;7.97;;;5.70;;
36653;SDS011;22650;49.350;20.898;2024-02-28T11:43:39;9.52;;;5.95;;
36653;SDS011;22650;49.350;20.898;2024-02-28T11:46:23;10.85;;;6.25;;
36653;SDS011;22650;49.350;20.898;2024-02-28T11:48:57;10.43;;;6.45;;
36653;SDS011;22650;49.350;20.898;2024-02-28T11:51:30;8.50;;;5.20;;
36653;SDS011;22650;49.350;20.898;2024-02-28T11:54:04;10.73;;;6.18;;
36653;SDS011;22650;49.350;20.898;2024-02-28T11:56:39;7.15;;;5.00;;
36653;SDS011;22650;49.350;20.898;2024-02-28T11:59:13;8.70;;;5.07;;
36653;SDS011;22650;49.350;20.898;2024-02-28T12:01:47;9.52;;;5.40;;
36653;SDS011;22650;49.350;20.898;2024-02-28T12:04:23;8.93;;;5.40;;
36653;SDS011;22650;49.350;20.898;2024-02-28T12:06:57;7.00;;;4.75;;
36653;SDS011;22650;49.350;20.898;2024-02-28T12:09:31;7.72;;;4.78;;
36653;SDS011;22650;49.350;20.898;2024-02-28T12:12:14;7.97;;;4.75;;
36653;SDS011;22650;49.350;20.898;2024-02-28T12:14:50;7.63;;;5.07;;
36653;SDS011;22650;49.350;20.898;2024-02-28T12:17:24;8.38;;;5.47;;
36653;SDS011;22650;49.350;20.898;2024-02-28T12:19:58;6.60;;;4.72;;
36653;SDS011;22650;49.350;20.898;2024-02-28T12:22:33;9.40;;;5.40;;
36653;SDS011;22650;49.350;20.898;2024-02-28T12:25:06;8.15;;;5.38;;
36653;SDS011;22650;49.350;20.898;2024-02-28T12:27:42;10.27;;;5.82;;
36653;SDS011;22650;49.350;20.898;2024-02-28T12:30:16;7.38;;;5.82;;
36653;SDS011;22650;49.350;20.898;2024-02-28T12:32:49;8.98;;;5.18;;
36653;SDS011;22650;49.350;20.898;2024-02-28T12:35:23;7.85;;;5.40;;
36653;SDS011;22650;49.350;20.898;2024-02-28T12:37:56;9.35;;;5.78;;
36653;SDS011;22650;49.350;20.898;2024-02-28T12:40:30;9.73;;;6.40;;
36653;SDS011;22650;49.350;20.898;2024-02-28T12:43:05;7.85;;;5.20;;
36653;SDS011;22650;49.350;20.898;2024-02-28T12:45:39;9.65;;;5.97;;
36653;SDS011;22650;49.350;20.898;2024-02-28T12:48:12;9.88;;;6.28;;
36653;SDS011;22650;49.350;20.898;2024-02-28T12:50:46;9.38;;;6.32;;
36653;SDS011;22650;49.350;20.898;2024-02-28T12:53:19;10.27;;;6.22;;
36653;SDS011;22650;49.350;20.898;2024-02-28T12:55:53;14.18;;;6.10;;
36653;SDS011;22650;49.350;20.898;2024-02-28T12:58:28;9.35;;;6.18;;
36653;SDS011;22650;49.350;20.898;2024-02-28T13:01:02;10.57;;;5.78;;
36653;SDS011;22650;49.350;20.898;2024-02-28T13:03:36;8.45;;;6.03;;
36653;SDS011;22650;49.350;20.898;2024-02-28T13:06:10;10.88;;;6.03;;
36653;SDS011;22650;49.350;20.898;2024-02-28T13:08:44;10.73;;;6.13;;
36653;SDS011;22650;49.350;20.898;2024-02-28T13:11:23;9.50;;;5.93;;
36653;SDS011;22650;49.350;20.898;2024-02-28T13:13:58;10.23;;;6.70;;
36653;SDS011;22650;49.350;20.898;2024-02-28T13:16:32;8.85;;;5.93;;
36653;SDS011;22650;49.350;20.898;2024-02-28T13:19:06;9.90;;;5.88;;
36653;SDS011;22650;49.350;20.898;2024-02-28T13:21:39;7.57;;;5.68;;
36653;SDS011;22650;49.350;20.898;2024-02-28T13:24:13;10.75;;;6.50;;
36653;SDS011;22650;49.350;20.898;2024-02-28T13:26:48;10.40;;;6.60;;
36653;SDS011;22650;49.350;20.898;2024-02-28T13:29:23;11.98;;;7.05;;
36653;SDS011;22650;49.350;20.898;2024-02-28T13:31:57;10.38;;;6.38;;
36653;SDS011;22650;49.350;20.898;2024-02-28T13:34:30;11.40;;;7.55;;
36653;SDS011;22650;49.350;20.898;2024-02-28T13:37:04;10.93;;;6.32;;
36653;SDS011;22650;49.350;20.898;2024-02-28T13:39:38;10.55;;;6.57;;
36653;SDS011;22650;49.350;20.898;2024-02-28T13:42:12;9.20;;;5.88;;
36653;SDS011;22650;49.350;20.898;2024-02-28T13:44:48;8.15;;;5.65;;
36653;SDS011;22650;49.350;20.898;2024-02-28T13:47:22;11.20;;;6.30;;
36653;SDS011;22650;49.350;20.898;2024-02-28T13:49:56;8.35;;;6.30;;
36653;SDS011;22650;49.350;20.898;2024-02-28T13:52:30;8.43;;;5.95;;
36653;SDS011;22650;49.350;20.898;2024-02-28T13:55:06;10.88;;;5.75;;
36653;SDS011;22650;49.350;20.898;2024-02-28T13:57:41;9.20;;;6.70;;
36653;SDS011;22650;49.350;20.898;2024-02-28T14:00:16;9.07;;;6.22;;
36653;SDS011;22650;49.350;20.898;2024-02-28T14:02:50;9.98;;;6.43;;
36653;SDS011;22650;49.350;20.898;2024-02-28T14:05:23;8.38;;;5.47;;
36653;SDS011;22650;49.350;20.898;2024-02-28T14:07:57;10.25;;;6.35;;
36653;SDS011;22650;49.350;20.898;2024-02-28T14:10:31;9.07;;;5.80;;
36653;SDS011;22650;49.350;20.898;2024-02-28T14:13:04;9.60;;;6.30;;
36653;SDS011;22650;49.350;20.898;2024-02-28T14:15:39;12.98;;;6.32;;
36653;SDS011;22650;49.350;20.898;2024-02-28T14:18:13;11.63;;;5.75;;
36653;SDS011;22650;49.350;20.898;2024-02-28T14:20:47;11.25;;;6.05;;
36653;SDS011;22650;49.350;20.898;2024-02-28T14:23:20;10.30;;;6.28;;
36653;SDS011;22650;49.350;20.898;2024-02-28T14:25:54;14.15;;;7.50;;
36653;SDS011;22650;49.350;20.898;2024-02-28T14:28:28;10.48;;;6.05;;
36653;SDS011;22650;49.350;20.898;2024-02-28T14:31:03;16.70;;;8.23;;
36653;SDS011;22650;49.350;20.898;2024-02-28T14:33:37;13.48;;;7.05;;
36653;SDS011;22650;49.350;20.898;2024-02-28T14:36:11;13.00;;;7.25;;
36653;SDS011;22650;49.350;20.898;2024-02-28T14:38:45;18.90;;;10.73;;
36653;SDS011;22650;49.350;20.898;2024-02-28T14:41:19;14.13;;;8.85;;
36653;SDS011;22650;49.350;20.898;2024-02-28T14:43:53;13.43;;;7.78;;
36653;SDS011;22650;49.350;20.898;2024-02-28T14:46:28;10.15;;;6.88;;
36653;SDS011;22650;49.350;20.898;2024-02-28T14:49:01;9.05;;;6.82;;
36653;SDS011;22650;49.350;20.898;2024-02-28T14:51:37;14.82;;;10.35;;
36653;SDS011;22650;49.350;20.898;2024-02-28T14:56:45;13.65;;;9.00;;
36653;SDS011;22650;49.350;20.898;2024-02-28T14:59:19;10.27;;;6.93;;
36653;SDS011;22650;49.350;20.898;2024-02-28T15:01:56;8.63;;;5.80;;
36653;SDS011;22650;49.350;20.898;2024-02-28T15:04:29;8.38;;;6.32;;
36653;SDS011;22650;49.350;20.898;2024-02-28T15:07:03;12.60;;;6.88;;
36653;SDS011;22650;49.350;20.898;2024-02-28T15:09:37;9.80;;;7.30;;
36653;SDS011;22650;49.350;20.898;2024-02-28T15:12:12;10.52;;;6.45;;
36653;SDS011;22650;49.350;20.898;2024-02-28T15:14:47;11.88;;;9.30;;
36653;SDS011;22650;49.350;20.898;2024-02-28T15:17:22;12.68;;;11.13;;